Latest Coastal Weather Observations for Cape Flattery

IDQ60701

Issued at 8:22 pm EST Saturday 21 October 2017 (issued every 10 minutes, with the page automatically refreshed every 10 minutes)

About coastal observations | Map of coastal stations | Coastal observations for QLD | Marine services | Other Formats
Station Details ID: 031213 Name: CAPE FLATTERY Lat: -14.97 Lon: 145.31 Height: 18.5 m
Data from the previous 72 hours. | See also: Recent months at Cape Flattery
Date/Time
EST
Temp
°C
Wind Pressure Rain since
9am
mm
Weather Cloud Vis
km
Sea
Height
m
Swell
Dir  Spd
kts
Gust
kts
hPa Trend Height
m
Period
s
Dir
21/08:00pm 25.7 SE 10 14 1012.1 - 0.0 - - - - - - -
21/07:30pm 25.7 SE 9 13 1011.5 - 0.0 - - - - - - -
21/07:00pm 25.7 SE 10 14 1011.2 - 0.0 - - - - - - -
21/06:30pm 25.6 SE 11 15 1010.9 - 0.0 - - - - - - -
21/06:00pm 25.6 SE 11 14 1010.6 - 0.0 - - - - - - -
21/05:30pm 26.8 SE 10 15 1010.1 - 0.0 - - - - - - -
21/05:00pm 26.6 ESE 11 14 1009.9 - 0.0 - - - - - - -
21/04:30pm 27.7 SE 11 15 1009.9 - 0.0 - - - - - - -
21/04:00pm 27.3 SE 10 13 1010.1 - 0.0 - - - - - - -
21/03:30pm 26.9 ESE 10 12 1010.1 - 0.0 - - - - - - -
21/03:00pm 27.0 SE 9 13 1010.3 - 0.0 - - - - - - -
21/02:30pm 27.2 ESE 9 13 1010.7 - 0.0 - - - - - - -
21/02:00pm 27.0 ESE 9 11 1011.0 - 0.0 - - - - - - -
21/01:30pm 27.5 ESE 10 14 1011.5 - 0.0 - - - - - - -
21/01:00pm 27.4 SE 11 15 1011.9 - 0.0 - - - - - - -
21/12:30pm 27.9 SE 11 15 1012.5 - 0.0 - - - - - - -
21/12:00pm 27.2 SE 12 16 1013.0 - 0.0 - - - - - - -
21/11:30am 27.6 SE 9 14 1013.4 - 0.0 - - - - - - -
21/11:00am 28.2 ESE 10 15 1013.6 - 0.0 - - - - - - -
21/10:30am 28.0 ESE 11 16 1013.9 - 0.0 - - - - - - -
21/10:00am 27.2 ESE 11 15 1014.0 - 0.0 - - - - - - -
21/09:30am 26.8 SE 12 16 1013.9 - 0.0 - - - - - - -
21/09:00am 26.6 SE 12 15 1014.0 - 0.6 - - - - - - -
21/08:30am 25.8 SE 10 14 1014.0 - 0.6 - - - - - - -
21/08:00am 25.7 SE 9 12 1013.7 - 0.6 - - - - - - -
21/07:30am 24.3 ESE 8 12 1013.5 - 0.6 - - - - - - -
21/07:00am 23.9 ESE 9 12 1013.2 - 0.4 - - - - - - -
21/06:30am 25.0 ESE 10 13 1012.8 - 0.2 - - - - - - -
21/06:00am 24.7 ESE 9 13 1012.7 - 0.2 - - - - - - -
21/05:30am 24.7 ESE 9 12 1012.4 - 0.2 - - - - - - -
21/05:00am 24.9 ESE 10 15 1012.3 - 0.2 - - - - - - -
21/04:30am 24.9 SE 11 14 1012.3 - 0.2 - - - - - - -
21/04:00am 24.6 SE 9 13 1012.1 - 0.2 - - - - - - -
21/03:30am 24.8 SE 11 17 1012.1 - 0.2 - - - - - - -
21/03:00am 24.8 ESE 9 15 1012.4 - 0.2 - - - - - - -
21/02:30am 24.7 SE 10 14 1012.5 - 0.2 - - - - - - -
21/02:00am 24.7 SE 11 15 1012.7 - 0.2 - - - - - - -
21/01:30am 24.5 ESE 10 13 1013.0 - 0.2 - - - - - - -
21/01:00am 24.6 ESE 13 19 1013.2 - 0.2 - - - - - - -
21/12:30am 24.8 SE 12 19 1013.3 - 0.2 - - - - - - -
21/12:00am 24.9 SE 12 15 1013.9 - 0.2 - - - - - - -
 
Date/Time
EST
Temp
°C
Wind Pressure Rain since
9am
mm
Weather Cloud Vis
km
Sea
Height
m
Swell
Dir  Spd
kts
Gust
kts
hPa Trend Height
m
Period
s
Dir
20/11:30pm 25.0 SE 11 14 1014.4 - 0.2 - - - - - - -
20/11:00pm 25.0 SE 13 18 1014.5 - 0.2 - - - - - - -
20/10:30pm 25.0 SE 13 17 1015.0 - 0.2 - - - - - - -
20/10:00pm 25.0 SE 14 19 1015.1 - 0.2 - - - - - - -
20/09:30pm 25.1 SE 13 18 1014.8 - 0.2 - - - - - - -
20/09:00pm 25.1 SE 13 18 1014.6 - 0.2 - - - - - - -
20/08:30pm 24.8 SE 14 18 1014.3 - 0.2 - - - - - - -
20/08:00pm 25.5 SE 12 17 1014.2 - 0.2 - - - - - - -
20/07:30pm 25.0 SE 13 18 1014.0 - 0.2 - - - - - - -
20/07:00pm 25.3 SE 12 16 1013.7 - 0.2 - - - - - - -
20/06:30pm 25.3 SE 12 15 1013.2 - 0.2 - - - - - - -
20/06:00pm 25.3 SE 12 18 1013.1 - 0.2 - - - - - - -
20/05:30pm 25.3 SE 12 16 1012.9 - 0.2 - - - - - - -
20/05:00pm 25.7 SE 13 18 1012.7 - 0.2 - - - - - - -
20/04:30pm 26.6 SE 13 19 1012.6 - 0.2 - - - - - - -
20/04:00pm 26.8 SE 15 21 1012.5 - 0.2 - - - - - - -
20/03:30pm 26.8 SE 15 20 1012.7 - 0.2 - - - - - - -
20/03:00pm 26.9 SE 15 21 1012.6 - 0.2 - - - - - - -
20/02:30pm 26.9 SE 14 20 1013.0 - 0.2 - - - - - - -
20/02:00pm 26.7 SE 14 19 1013.2 - 0.2 - - - - - - -
20/01:30pm 26.8 SE 14 21 1013.5 - 0.2 - - - - - - -
20/01:00pm 27.3 SE 15 23 1013.7 - 0.2 - - - - - - -
20/12:30pm 27.2 SE 15 21 1014.0 - 0.2 - - - - - - -
20/12:00pm 27.3 SE 14 20 1014.5 - 0.2 Recent precip. - - - - - -
20/11:30am 27.2 SE 15 21 1014.8 - 0.2 - - - - - - -
20/11:00am 26.9 SE 15 19 1015.0 - 0.0 - - - - - - -
20/10:30am 26.5 SE 17 22 1014.9 - 0.0 - - - - - - -
20/10:00am 26.5 SE 14 19 1014.9 - 0.0 - - - - - - -
20/09:30am 26.2 SE 14 20 1014.6 - 0.0 - - - - - - -
20/09:00am 25.7 SE 11 16 1014.8 - 13.2 - - - - - - -
20/08:30am 25.4 SE 13 19 1014.6 - 13.2 - - - - - - -
20/08:00am 25.4 SE 16 23 1014.3 - 13.2 - - - - - - -
20/07:30am 25.4 SE 15 19 1013.7 - 13.2 - - - - - - -
20/07:00am 25.1 SE 12 17 1013.3 - 13.2 - - - - - - -
20/06:30am 25.0 SE 15 21 1012.6 - 13.2 - - - - - - -
20/06:00am 24.9 SE 13 17 1012.7 - 13.2 - - - - - - -
20/05:30am 24.8 SE 11 16 1012.5 - 13.2 - - - - - - -
20/05:00am 24.7 ESE 10 16 1012.4 - 13.2 - - - - - - -
20/04:30am 24.5 ESE 8 11 1012.2 - 13.2 - - - - - - -
20/04:00am 24.4 ESE 6 7 1012.1 - 13.2 - - - - - - -
20/03:30am 24.8 ESE 6 9 1012.0 - 13.2 - - - - - - -
20/03:00am 24.7 ESE 9 13 1011.7 - 13.2 - - - - - - -
20/02:30am 24.6 ESE 11 15 1011.8 - 13.2 - - - - - - -
20/02:00am 24.4 ESE 8 12 1012.3 - 13.2 - - - - - - -
20/01:30am 24.5 ESE 9 13 1012.7 - 13.2 - - - - - - -
20/01:00am 24.4 ESE 11 14 1013.1 - 13.2 - - - - - - -
20/12:30am 24.5 ESE 10 16 1013.4 - 13.2 - - - - - - -
20/12:00am 24.2 ESE 11 15 1013.6 - 13.2 Recent precip. - - - - - -
 
Date/Time
EST
Temp
°C
Wind Pressure Rain since
9am
mm
Weather Cloud Vis
km
Sea
Height
m
Swell
Dir  Spd
kts
Gust
kts
hPa Trend Height
m
Period
s
Dir
19/11:30pm 24.1 ESE 7 11 1014.4 - 13.2 - - - - - - -
19/11:00pm 23.8 SE 10 13 1014.8 - 13.0 - - - - - - -
19/10:30pm 23.1 ESE 15 23 1015.1 - 12.6 - - - - - - -
19/10:00pm 25.0 ESE 10 15 1014.6 - 10.4 - - - - - - -
19/09:30pm 24.9 ESE 9 11 1014.5 - 10.4 - - - - - - -
19/09:00pm 24.9 ESE 9 14 1014.2 - 10.2 - - - - - - -
19/08:30pm 24.9 E 9 13 1013.9 - 10.2 - - - - - - -
19/08:00pm 24.9 ESE 13 20 1013.4 - 10.2 - - - - - - -
19/07:30pm 24.8 ESE 10 15 1013.0 - 10.2 - - - - - - -
19/07:00pm 24.7 ESE 12 19 1012.5 - 10.2 - - - - - - -
19/06:30pm 24.5 E 11 16 1012.5 - 10.2 - - - - - - -
19/06:00pm 24.4 E 11 17 1012.1 - 10.2 Rain - - - - - -
19/05:30pm 24.4 E 15 23 1011.6 - 10.0 - - - - - - -
19/05:00pm 24.9 E 15 21 1011.1 - 9.6 - - - - - - -
19/04:30pm 24.8 E 14 21 1010.7 - 9.6 - - - - - - -
19/04:00pm 24.8 ENE 9 13 1010.6 - 9.4 - - - - - - -
19/03:30pm 24.8 ENE 13 22 1010.3 - 9.4 - - - - - - -
19/03:00pm 24.5 E 13 23 1010.2 - 9.2 Rain - - - - - -
19/02:30pm 24.5 ESE 8 13 1010.6 - 8.2 - - - - - - -
19/02:00pm 24.6 ESE 11 16 1010.7 - 7.0 - - - - - - -
19/01:30pm 24.5 ESE 12 21 1011.6 - 3.4 - - - - - - -
19/01:00pm 25.0 ESE 10 13 1011.5 - 3.0 - - - - - - -
19/12:30pm 25.0 SE 10 13 1011.9 - 3.0 - - - - - - -
19/12:00pm 25.7 SSE 12 16 1012.2 - 0.0 - - - - - - -
19/11:30am 26.0 SSE 12 17 1012.5 - 0.0 - - - - - - -
19/11:00am 27.4 ESE 12 15 1012.7 - 0.0 - - - - - - -
19/10:30am 28.7 ESE 13 19 1013.0 - 0.0 - - - - - - -
19/10:00am 27.6 E 13 18 1013.2 - 0.0 - - - - - - -
19/09:30am 27.8 E 14 19 1013.2 - 0.0 - - - - - - -
19/09:00am 28.1 E 12 19 1013.0 - 1.0 Recent precip. - - - - - -
19/08:30am 27.3 E 13 20 1012.7 - 1.0 - - - - - - -
19/08:00am 25.8 E 13 20 1012.6 - 0.8 - - - - - - -
19/07:30am 25.4 E 14 22 1012.1 - 0.8 - - - - - - -
19/07:00am 25.0 ENE 12 20 1011.7 - 0.8 - - - - - - -
19/06:30am 25.2 ENE 13 19 1011.1 - 0.6 - - - - - - -
19/06:00am 25.2 ENE 11 17 1010.7 - 0.6 - - - - - - -
19/05:30am 25.2 ENE 9 15 1010.2 - 0.6 - - - - - - -
19/05:00am 25.2 ENE 8 11 1010.0 - 0.6 - - - - - - -
19/04:30am 25.1 E 6 11 1009.8 - 0.6 - - - - - - -
19/04:00am 24.9 ENE 8 13 1009.4 - 0.6 - - - - - - -
19/03:30am 24.9 E 8 15 1008.0 - 0.6 - - - - - - -
19/03:00am 24.8 ENE 11 15 1008.8 - 0.6 - - - - - - -
19/02:30am 24.9 E 9 14 1009.8 - 0.6 - - - - - - -
19/02:00am 25.0 ENE 7 13 1009.5 - 0.6 - - - - - - -
19/01:30am 24.9 E 11 16 1009.4 - 0.6 - - - - - - -
19/01:00am 25.1 E 10 15 1009.7 - 0.4 - - - - - - -
19/12:30am 25.1 ESE 7 9 1010.7 - 0.2 - - - - - - -
19/12:00am 25.2 ESE 9 13 1011.2 - 0.2 - - - - - - -
 
Date/Time
EST
Temp
°C
Wind Pressure Rain since
9am
mm
Weather Cloud Vis
km
Sea
Height
m
Swell
Dir  Spd
kts
Gust
kts
hPa Trend Height
m
Period
s
Dir
18/11:30pm 25.3 ESE 7 9 1011.9 - 0.2 - - - - - - -
18/11:00pm 25.4 SE 11 15 1011.7 - 0.2 - - - - - - -
18/10:30pm 25.5 SE 13 18 1012.2 - 0.2 - - - - - - -
18/10:00pm 25.5 SE 14 19 1011.9 - 0.2 - - - - - - -
18/09:30pm 25.4 SE 13 18 1011.8 - 0.2 - - - - - - -
18/09:00pm 25.2 SE 14 20 1011.3 - 0.2 - - - - - - -
18/08:30pm 25.2 SE 14 18 1011.3 - 0.2 - - - - - - -

Other Formats:

Comma delimited format used in spreadsheet applications
http://www.bom.gov.au/fwo/IDQ60701/IDQ60701.94188.axf

JavaScript Object Notation format (JSON) in row-major order
http://www.bom.gov.au/fwo/IDQ60701/IDQ60701.94188.json